Time;durP1;ratioP1;P1;durP2;ratioP2;P2;SDS_P1;SDS_P2;PMS_P1;PMS_P2;Temp;Humidity;BMP_temperature;BMP_pressure;BME280_temperature;BME280_humidity;BME280_pressure;Samples;Min_cycle;Max_cycle;Signal;HPM_P1;HPM_P2
2021/06/18 00:02:01;;;;;;;9.55;7.75;;;24.50;99.90;;;;;;4991661;28;20026;-76
2021/06/18 00:04:27;;;;;;;10.82;8.05;;;24.50;99.90;;;;;;4991238;28;20089;-76
2021/06/18 00:06:53;;;;;;;8.82;7.63;;;24.50;99.90;;;;;;4991917;28;20026;-79
2021/06/18 00:09:19;;;;;;;9.38;7.60;;;24.50;99.90;;;;;;4991256;28;20034;-79
2021/06/18 00:11:44;;;;;;;8.68;7.82;;;24.50;99.90;;;;;;4991243;28;20045;-77
2021/06/18 00:14:10;;;;;;;10.25;7.80;;;24.50;99.90;;;;;;4991821;28;20035;-79
2021/06/18 00:16:36;;;;;;;10.48;7.63;;;24.50;99.90;;;;;;4991191;28;20026;-76
2021/06/18 00:19:02;;;;;;;10.07;8.45;;;24.50;99.90;;;;;;4994144;28;20026;-75
2021/06/18 00:21:28;;;;;;;10.73;7.70;;;24.50;99.90;;;;;;4997658;28;20121;-76
2021/06/18 00:23:54;;;;;;;10.65;8.07;;;24.50;99.90;;;;;;4998311;28;20105;-74
2021/06/18 00:26:19;;;;;;;9.57;7.40;;;24.50;99.90;;;;;;4998158;28;20035;-76
2021/06/18 00:28:45;;;;;;;13.07;7.55;;;24.50;99.90;;;;;;4998358;28;20030;-75
2021/06/18 00:31:11;;;;;;;9.18;7.63;;;24.50;99.90;;;;;;4997551;28;20045;-75
2021/06/18 00:33:37;;;;;;;11.30;8.60;;;24.50;99.90;;;;;;4998026;28;20045;-75
2021/06/18 00:36:03;;;;;;;9.43;7.90;;;24.40;99.90;;;;;;4997651;28;20410;-76
2021/06/18 00:38:29;;;;;;;10.95;8.40;;;24.50;99.90;;;;;;4997966;28;20026;-75
2021/06/18 00:40:55;;;;;;;9.43;7.95;;;24.50;99.90;;;;;;4997654;28;20394;-74
2021/06/18 00:43:21;;;;;;;11.55;8.85;;;24.50;99.90;;;;;;4997948;28;20402;-75
2021/06/18 00:45:47;;;;;;;10.55;8.63;;;24.40;99.90;;;;;;4998269;28;20023;-74
2021/06/18 00:48:13;;;;;;;12.65;8.85;;;24.40;99.90;;;;;;4998063;28;20026;-76
2021/06/18 00:50:40;;;;;;;10.93;9.32;;;24.40;99.90;;;;;;4997509;28;20031;-75
2021/06/18 00:53:06;;;;;;;12.82;9.80;;;24.40;99.90;;;;;;4997970;28;20022;-76
2021/06/18 00:55:33;;;;;;;12.95;9.38;;;24.40;99.90;;;;;;4997790;28;20138;-74
2021/06/18 00:58:00;;;;;;;12.70;9.20;;;24.40;99.90;;;;;;4996692;28;20040;-74
2021/06/18 01:00:26;;;;;;;11.27;8.63;;;24.40;99.90;;;;;;4997439;28;20451;-74
2021/06/18 01:02:52;;;;;;;12.75;9.02;;;24.40;99.90;;;;;;5013467;28;20080;-75
2021/06/18 01:05:19;;;;;;;13.80;9.75;;;24.40;99.90;;;;;;5017767;28;20097;-74
2021/06/18 01:08:11;;;;;;;13.30;8.70;;;24.40;99.90;;;;;;5017812;28;20025;-76
2021/06/18 01:10:45;;;;;;;12.60;9.00;;;24.30;99.90;;;;;;5005121;28;20042;-75
2021/06/18 01:13:32;;;;;;;12.10;10.27;;;24.30;99.90;;;;;;4996951;28;20495;-76
2021/06/18 01:16:14;;;;;;;13.35;10.02;;;24.30;99.90;;;;;;4997842;28;20564;-75
2021/06/18 01:19:02;;;;;;;12.48;9.52;;;24.30;99.90;;;;;;4997635;28;20038;-76
2021/06/18 01:21:46;;;;;;;11.85;10.35;;;24.30;99.90;;;;;;4992175;28;20026;-75
2021/06/18 01:24:50;;;;;;;18.88;10.77;;;24.30;99.90;;;;;;4997733;28;20548;-76
2021/06/18 01:27:38;;;;;;;14.65;11.73;;;24.30;99.90;;;;;;4998069;28;20022;-75
2021/06/18 01:30:13;;;;;;;14.70;10.75;;;24.30;99.90;;;;;;4995949;28;20093;-75
2021/06/18 01:32:58;;;;;;;14.05;12.38;;;24.30;99.90;;;;;;5008629;28;20121;-76
2021/06/18 01:35:25;;;;;;;16.38;11.63;;;24.30;99.90;;;;;;5009363;28;20074;-76
2021/06/18 01:37:56;;;;;;;20.45;13.90;;;24.30;99.90;;;;;;4994517;28;20034;-75
2021/06/18 01:40:24;;;;;;;16.52;11.48;;;24.30;99.90;;;;;;5008884;28;20033;-74
2021/06/18 01:42:50;;;;;;;15.05;11.77;;;24.30;99.90;;;;;;4994472;28;20019;-74
2021/06/18 01:45:18;;;;;;;12.85;10.30;;;24.30;99.90;;;;;;4994700;28;20070;-75
2021/06/18 01:47:45;;;;;;;18.30;11.82;;;24.30;99.90;;;;;;4993260;28;20077;-74
2021/06/18 01:50:17;;;;;;;14.35;11.60;;;24.30;99.90;;;;;;4992734;28;20030;-75
2021/06/18 01:52:48;;;;;;;13.65;12.20;;;24.30;99.90;;;;;;5005754;28;20023;-75
2021/06/18 01:55:16;;;;;;;14.43;11.05;;;24.30;99.90;;;;;;4984652;28;20035;-75
2021/06/18 01:57:42;;;;;;;13.32;11.00;;;24.30;99.90;;;;;;5008843;28;20046;-74
2021/06/18 02:00:09;;;;;;;14.02;11.68;;;24.20;99.90;;;;;;4992688;28;20393;-75
2021/06/18 02:02:35;;;;;;;14.65;12.25;;;24.30;99.90;;;;;;4993336;28;20514;-75
2021/06/18 02:05:06;;;;;;;17.63;12.82;;;24.30;99.90;;;;;;4993784;28;20026;-75
2021/06/18 02:07:34;;;;;;;17.08;12.63;;;24.30;99.90;;;;;;4993465;28;20030;-74
2021/06/18 02:10:04;;;;;;;17.42;12.43;;;24.30;99.90;;;;;;4993889;28;20098;-76
2021/06/18 02:12:30;;;;;;;14.88;10.90;;;24.20;99.90;;;;;;4993177;28;20209;-75
2021/06/18 02:14:57;;;;;;;13.82;11.95;;;24.20;99.90;;;;;;4993875;28;20054;-75
2021/06/18 02:17:25;;;;;;;14.10;10.60;;;24.20;99.90;;;;;;4993403;28;20038;-76
2021/06/18 02:19:51;;;;;;;17.38;11.25;;;24.20;99.90;;;;;;4993835;28;20084;-74
2021/06/18 02:22:18;;;;;;;14.35;10.57;;;24.20;99.90;;;;;;4993416;28;20034;-74
2021/06/18 02:24:44;;;;;;;13.10;10.32;;;24.20;99.90;;;;;;4992826;28;20030;-75
2021/06/18 02:27:17;;;;;;;13.77;9.85;;;24.20;99.90;;;;;;4992979;28;20026;-74
2021/06/18 02:29:43;;;;;;;12.90;9.48;;;24.20;99.90;;;;;;4993411;28;20038;-75
2021/06/18 02:32:12;;;;;;;16.20;9.95;;;24.20;99.90;;;;;;4992753;28;20057;-74
2021/06/18 02:34:38;;;;;;;10.00;8.75;;;24.20;99.90;;;;;;4993240;28;20081;-74
2021/06/18 02:37:05;;;;;;;9.68;8.70;;;24.20;99.90;;;;;;5008313;28;20042;-74
2021/06/18 02:39:32;;;;;;;10.10;7.97;;;24.20;99.90;;;;;;4993206;28;20023;-75
2021/06/18 02:41:58;;;;;;;10.35;8.20;;;24.20;99.90;;;;;;4992029;28;20153;-74
2021/06/18 02:44:23;;;;;;;10.55;8.55;;;24.20;99.90;;;;;;4991817;28;20113;-74
2021/06/18 02:47:04;;;;;;;10.95;8.10;;;24.20;99.90;;;;;;4993287;28;20027;-74
2021/06/18 02:49:50;;;;;;;11.45;8.43;;;24.10;99.90;;;;;;4993035;28;20490;-75
2021/06/18 02:52:19;;;;;;;;;;;24.10;99.90;;;;;;4982535;28;20045;-74
2021/06/18 02:54:52;;;;;;;13.40;8.32;;;24.10;99.90;;;;;;4993108;28;20370;-75
2021/06/18 02:57:25;;;;;;;11.77;7.70;;;24.10;99.90;;;;;;4991985;28;20038;-75
2021/06/18 03:00:01;;;;;;;10.65;8.25;;;24.10;99.90;;;;;;4992879;28;20554;-76
2021/06/18 03:02:33;;;;;;;11.93;9.45;;;24.10;99.90;;;;;;4992243;28;20177;-75
2021/06/18 03:05:01;;;;;;;11.48;9.13;;;24.10;99.90;;;;;;4992947;28;20026;-75
2021/06/18 03:07:29;;;;;;;10.82;8.80;;;24.10;99.90;;;;;;4992706;28;20033;-75
2021/06/18 03:09:59;;;;;;;10.80;9.30;;;24.10;99.90;;;;;;4992801;28;20493;-74
2021/06/18 03:12:26;;;;;;;12.85;8.63;;;24.10;99.90;;;;;;4987947;28;20443;-75
2021/06/18 03:14:55;;;;;;;15.02;9.75;;;24.10;99.90;;;;;;4973385;28;20029;-74
2021/06/18 03:17:22;;;;;;;10.13;8.95;;;24.10;99.90;;;;;;4973085;28;20038;-75
2021/06/18 03:19:58;;;;;;;10.93;8.75;;;24.10;99.90;;;;;;4973505;28;20046;-74
2021/06/18 03:22:25;;;;;;;13.75;10.75;;;24.00;99.90;;;;;;4991180;28;20549;-75
2021/06/18 03:24:52;;;;;;;13.38;9.48;;;24.00;99.90;;;;;;4992125;28;20026;-74
2021/06/18 03:27:20;;;;;;;10.98;8.82;;;24.10;99.90;;;;;;4992707;28;20030;-74
2021/06/18 03:29:47;;;;;;;11.98;9.05;;;24.10;99.90;;;;;;4992762;28;20110;-74
2021/06/18 03:32:13;;;;;;;11.95;9.10;;;24.10;99.90;;;;;;4991793;28;20041;-76
2021/06/18 03:34:40;;;;;;;13.73;10.07;;;24.00;99.90;;;;;;4991872;28;20117;-74
2021/06/18 03:37:06;;;;;;;13.07;9.68;;;24.10;99.90;;;;;;4991954;28;20046;-75
2021/06/18 03:39:33;;;;;;;10.48;9.20;;;24.10;99.90;;;;;;4991945;28;20030;-75
2021/06/18 03:41:59;;;;;;;13.32;9.10;;;24.00;99.90;;;;;;4991707;28;20033;-74
2021/06/18 03:44:25;;;;;;;13.55;10.18;;;24.00;99.90;;;;;;4991907;28;20032;-75
2021/06/18 03:46:52;;;;;;;14.35;10.15;;;24.10;99.90;;;;;;4992211;28;20021;-74
2021/06/18 03:49:18;;;;;;;14.38;10.25;;;24.00;99.90;;;;;;4992471;28;20474;-74
2021/06/18 03:51:44;;;;;;;13.13;9.35;;;24.00;99.90;;;;;;5007207;28;20030;-75
2021/06/18 03:54:10;;;;;;;13.63;9.48;;;24.00;99.90;;;;;;4991591;28;20497;-75
2021/06/18 03:56:38;;;;;;;11.63;9.50;;;24.00;99.90;;;;;;4991718;28;20039;-74
2021/06/18 03:59:06;;;;;;;12.75;10.68;;;24.00;99.90;;;;;;4991925;28;20396;-75
2021/06/18 04:01:32;;;;;;;13.10;9.27;;;24.00;99.90;;;;;;5006081;28;20395;-75
2021/06/18 04:03:59;;;;;;;12.15;9.48;;;24.00;99.90;;;;;;4991644;28;20470;-75
2021/06/18 04:06:28;;;;;;;11.02;9.93;;;24.00;99.90;;;;;;4991409;28;20121;-75
2021/06/18 04:08:55;;;;;;;15.35;9.20;;;24.00;99.90;;;;;;4991841;28;20105;-75
2021/06/18 04:11:21;;;;;;;13.57;9.93;;;24.00;99.90;;;;;;4991339;28;20478;-76
2021/06/18 04:13:48;;;;;;;12.40;9.43;;;24.00;99.90;;;;;;4990862;28;20026;-75
2021/06/18 04:16:14;;;;;;;12.02;9.40;;;24.00;99.90;;;;;;4992128;28;20019;-77
2021/06/18 04:18:44;;;;;;;11.60;8.43;;;23.90;99.90;;;;;;4991648;28;20061;-75
2021/06/18 04:21:21;;;;;;;10.70;8.77;;;24.00;99.90;;;;;;4991436;28;20060;-75
2021/06/18 04:23:47;;;;;;;9.88;8.07;;;23.90;99.90;;;;;;4992117;28;20030;-76
2021/06/18 04:26:13;;;;;;;11.80;8.15;;;24.00;99.90;;;;;;4991788;28;20027;-78
2021/06/18 04:28:39;;;;;;;14.25;9.00;;;24.00;99.90;;;;;;4991543;28;20038;-77
2021/06/18 04:31:06;;;;;;;10.50;8.38;;;23.90;99.90;;;;;;4991288;28;20030;-77
2021/06/18 04:33:32;;;;;;;9.65;8.25;;;23.90;99.90;;;;;;4991060;28;20037;-78
2021/06/18 04:35:58;;;;;;;12.13;8.55;;;23.90;99.90;;;;;;4990856;28;20031;-76
2021/06/18 04:38:24;;;;;;;10.57;8.43;;;23.90;99.90;;;;;;4991425;28;20514;-78
2021/06/18 04:40:50;;;;;;;13.93;7.60;;;23.90;99.90;;;;;;4991277;28;20022;-76
2021/06/18 04:43:16;;;;;;;10.18;8.02;;;23.90;99.90;;;;;;4991951;28;20030;-77
2021/06/18 04:45:42;;;;;;;11.98;8.18;;;23.90;99.90;;;;;;4991409;28;20101;-77
2021/06/18 04:48:07;;;;;;;10.57;8.50;;;23.90;99.90;;;;;;4991580;28;20109;-78
2021/06/18 04:50:33;;;;;;;9.65;8.35;;;23.80;99.90;;;;;;4990854;28;20022;-78
2021/06/18 04:53:01;;;;;;;10.90;8.95;;;23.90;99.90;;;;;;4991468;28;20031;-77
2021/06/18 04:55:27;;;;;;;10.20;8.80;;;23.90;99.90;;;;;;4991374;28;20490;-77
2021/06/18 04:57:53;;;;;;;11.35;8.43;;;23.80;99.90;;;;;;4991497;28;20499;-78
2021/06/18 05:00:23;;;;;;;11.60;8.77;;;23.80;99.90;;;;;;4990781;28;20111;-77
2021/06/18 05:02:49;;;;;;;10.88;7.97;;;23.80;99.90;;;;;;4991450;28;20206;-76
2021/06/18 05:05:15;;;;;;;9.68;8.00;;;23.80;99.90;;;;;;4991941;28;20101;-77
2021/06/18 05:07:40;;;;;;;12.07;8.23;;;23.80;99.90;;;;;;4994931;28;20034;-77
2021/06/18 05:10:08;;;;;;;11.18;8.60;;;23.80;99.90;;;;;;4994627;28;20014;-77
2021/06/18 05:12:34;;;;;;;11.45;8.80;;;23.80;99.90;;;;;;4994850;28;20034;-77
2021/06/18 05:15:00;;;;;;;10.93;8.48;;;23.80;99.90;;;;;;4995112;28;20072;-76
2021/06/18 05:17:25;;;;;;;10.50;8.20;;;23.80;99.90;;;;;;4994655;28;20101;-79
2021/06/18 05:19:51;;;;;;;13.07;9.07;;;23.80;99.90;;;;;;4994503;28;20022;-77
2021/06/18 05:22:17;;;;;;;11.48;8.63;;;23.80;99.90;;;;;;4993934;28;20056;-77
2021/06/18 05:24:42;;;;;;;10.95;8.00;;;23.80;99.90;;;;;;4994573;28;20015;-79
2021/06/18 05:27:08;;;;;;;12.05;9.27;;;23.80;99.90;;;;;;4994702;28;20364;-77
2021/06/18 05:29:36;;;;;;;10.65;8.52;;;23.80;99.90;;;;;;5009506;28;20022;-79
2021/06/18 05:32:02;;;;;;;9.63;8.55;;;23.80;99.90;;;;;;4993795;28;20038;-77
2021/06/18 05:34:28;;;;;;;11.98;8.55;;;23.80;99.90;;;;;;4994357;28;20516;-80
2021/06/18 05:36:53;;;;;;;11.52;9.18;;;23.80;99.90;;;;;;4994601;28;20069;-79
2021/06/18 05:39:19;;;;;;;13.60;8.70;;;23.80;99.90;;;;;;4993945;28;20030;-77
2021/06/18 05:41:45;;;;;;;11.20;9.38;;;23.80;99.90;;;;;;5008948;28;20486;-78
2021/06/18 05:44:10;;;;;;;10.23;8.32;;;23.80;99.90;;;;;;4993890;28;20038;-80
2021/06/18 05:46:36;;;;;;;12.75;8.30;;;23.80;99.90;;;;;;4993183;28;20544;-80
2021/06/18 05:49:02;;;;;;;9.60;7.88;;;23.80;99.90;;;;;;4994239;28;20030;-77
2021/06/18 05:51:28;;;;;;;9.73;8.70;;;23.80;99.90;;;;;;4993591;28;20113;-78
2021/06/18 05:53:54;;;;;;;11.65;7.32;;;23.80;99.90;;;;;;4994369;28;20149;-77
2021/06/18 05:56:20;;;;;;;8.27;6.63;;;23.80;99.90;;;;;;4993347;28;20070;-77
2021/06/18 05:58:46;;;;;;;10.13;7.70;;;23.80;99.90;;;;;;4994387;28;20030;-76
2021/06/18 06:01:11;;;;;;;9.32;7.43;;;23.80;99.90;;;;;;4992420;28;20040;-77
2021/06/18 06:03:37;;;;;;;8.90;7.18;;;23.80;99.90;;;;;;4993197;28;20062;-79
2021/06/18 06:06:03;;;;;;;10.90;9.63;;;23.80;99.90;;;;;;4994072;28;20033;-77
2021/06/18 06:08:31;;;;;;;14.90;10.55;;;23.80;99.90;;;;;;5008783;28;20130;-77
2021/06/18 06:10:57;;;;;;;16.02;12.00;;;23.70;99.90;;;;;;4992645;28;20089;-78
2021/06/18 06:13:22;;;;;;;14.38;10.25;;;23.70;99.90;;;;;;4992514;28;20034;-79
2021/06/18 06:15:49;;;;;;;13.30;10.85;;;23.70;99.90;;;;;;4990927;28;20034;-77
2021/06/18 06:18:15;;;;;;;18.88;11.13;;;23.70;99.90;;;;;;4991755;28;20041;-78
2021/06/18 06:20:42;;;;;;;15.60;12.07;;;23.60;99.90;;;;;;4992914;28;20018;-83
2021/06/18 06:23:08;;;;;;;13.82;10.40;;;23.60;99.90;;;;;;4993796;28;20050;-83
2021/06/18 06:25:34;;;;;;;11.93;10.70;;;23.60;99.90;;;;;;4993437;28;20030;-82
2021/06/18 06:28:00;;;;;;;14.73;11.45;;;23.60;99.90;;;;;;4993684;28;20547;-80
2021/06/18 06:30:25;;;;;;;13.57;11.23;;;23.60;99.90;;;;;;4992360;28;20022;-75
2021/06/18 06:32:51;;;;;;;15.32;11.43;;;23.60;99.90;;;;;;4995042;28;20030;-77
2021/06/18 06:35:17;;;;;;;14.35;11.77;;;23.60;99.90;;;;;;4993741;28;20034;-75
2021/06/18 06:37:42;;;;;;;15.00;12.50;;;23.60;99.90;;;;;;4993236;28;20085;-74
2021/06/18 06:40:10;;;;;;;38.15;21.27;;;23.70;99.90;;;;;;4992999;28;20112;-74
2021/06/18 06:42:36;;;;;;;28.38;17.25;;;23.70;99.90;;;;;;4993181;28;20019;-77
2021/06/18 06:45:02;;;;;;;20.08;13.82;;;23.70;99.90;;;;;;4993324;28;20470;-80
2021/06/18 06:47:28;;;;;;;16.58;11.90;;;23.80;99.90;;;;;;5008228;28;20030;-84
2021/06/18 06:49:53;;;;;;;20.63;12.23;;;23.80;99.90;;;;;;4993283;28;20026;-78
2021/06/18 06:52:20;;;;;;;19.52;13.57;;;23.70;99.90;;;;;;4993195;28;20104;-74
2021/06/18 06:54:46;;;;;;;15.32;13.43;;;23.70;99.90;;;;;;4996362;28;20022;-78
2021/06/18 06:57:11;;;;;;;17.95;13.40;;;23.60;99.90;;;;;;4992617;28;20229;-76
2021/06/18 06:59:37;;;;;;;13.90;11.75;;;23.60;99.90;;;;;;4992552;28;20037;-79
2021/06/18 07:02:03;;;;;;;19.83;11.07;;;23.60;99.90;;;;;;4993032;28;20108;-79
2021/06/18 07:04:29;;;;;;;14.02;10.65;;;23.70;99.90;;;;;;4992508;28;20569;-79
2021/06/18 07:06:55;;;;;;;15.68;10.50;;;23.70;99.90;;;;;;4992604;28;20026;-79
2021/06/18 07:09:20;;;;;;;17.40;9.70;;;23.80;99.90;;;;;;4991604;28;20447;-77
2021/06/18 07:11:46;;;;;;;12.52;8.02;;;23.80;99.90;;;;;;4992219;28;20031;-81
2021/06/18 07:14:12;;;;;;;15.77;8.63;;;23.80;99.90;;;;;;4992462;28;20105;-80
2021/06/18 07:16:37;;;;;;;15.57;8.57;;;23.80;99.90;;;;;;4992461;28;20474;-79
2021/06/18 07:19:03;;;;;;;12.43;8.27;;;23.80;99.90;;;;;;5007577;28;20100;-79
2021/06/18 07:21:29;;;;;;;13.13;8.13;;;23.80;99.90;;;;;;4992317;28;20394;-79
2021/06/18 07:23:55;;;;;;;13.13;8.05;;;23.90;99.90;;;;;;4991944;28;20510;-80
2021/06/18 07:26:21;;;;;;;12.00;7.40;;;23.80;99.90;;;;;;4992436;28;20065;-80
2021/06/18 07:28:46;;;;;;;11.15;8.27;;;23.90;99.90;;;;;;4991963;28;20113;-77
2021/06/18 07:31:12;;;;;;;11.25;7.90;;;23.90;99.90;;;;;;4992709;28;20029;-82
2021/06/18 07:33:38;;;;;;;12.20;8.43;;;23.90;99.90;;;;;;4998755;28;20038;-80
2021/06/18 07:36:04;;;;;;;11.68;8.50;;;23.90;99.90;;;;;;4990304;28;20489;-79
2021/06/18 07:38:30;;;;;;;12.70;8.45;;;23.90;99.90;;;;;;4987296;28;20526;-82
2021/06/18 07:40:55;;;;;;;11.68;8.07;;;23.90;99.90;;;;;;4991447;28;20053;-78
2021/06/18 07:43:21;;;;;;;10.23;7.25;;;23.90;99.90;;;;;;4991810;28;20114;-76
2021/06/18 07:45:47;;;;;;;9.95;6.43;;;23.90;99.90;;;;;;4992515;28;20495;-74
2021/06/18 07:48:12;;;;;;;9.73;7.20;;;24.00;99.90;;;;;;5000669;28;20040;-76
2021/06/18 07:50:40;;;;;;;10.90;6.93;;;24.00;99.90;;;;;;4992976;28;20084;-79
2021/06/18 07:53:06;;;;;;;12.15;6.78;;;24.00;99.90;;;;;;4992021;28;20157;-75
2021/06/18 07:55:31;;;;;;;9.07;6.47;;;24.00;99.90;;;;;;4992381;28;20050;-75
2021/06/18 07:57:57;;;;;;;12.63;6.43;;;24.00;99.90;;;;;;4992954;28;20068;-81
2021/06/18 08:00:24;;;;;;;9.32;6.30;;;24.00;99.90;;;;;;4992919;28;20042;-80
2021/06/18 08:02:49;;;;;;;8.50;5.95;;;24.00;99.90;;;;;;4992396;28;20022;-79
2021/06/18 08:05:16;;;;;;;8.88;5.78;;;24.00;99.90;;;;;;4992481;28;20679;-76
2021/06/18 08:07:43;;;;;;;10.75;5.97;;;24.00;99.90;;;;;;4992261;28;20033;-80
2021/06/18 08:10:12;;;;;;;9.48;6.22;;;24.00;99.90;;;;;;4992361;28;20027;-81
2021/06/18 08:12:38;;;;;;;7.38;5.97;;;24.00;99.90;;;;;;4991999;28;20081;-80
2021/06/18 08:15:05;;;;;;;8.05;5.40;;;24.10;99.90;;;;;;4991760;28;20058;-81
2021/06/18 08:17:30;;;;;;;9.70;5.85;;;24.10;99.90;;;;;;4991076;28;20026;-80
2021/06/18 08:19:56;;;;;;;8.18;5.55;;;24.00;99.90;;;;;;4990714;28;20037;-80
2021/06/18 08:22:22;;;;;;;6.95;5.60;;;24.00;99.90;;;;;;4991512;28;20033;-79
2021/06/18 08:24:48;;;;;;;7.55;6.38;;;24.10;99.90;;;;;;4992930;28;20431;-77
2021/06/18 08:27:13;;;;;;;8.30;6.10;;;24.10;99.90;;;;;;4991536;28;20394;-82
2021/06/18 08:29:39;;;;;;;11.00;5.95;;;24.00;99.90;;;;;;4991530;28;20040;-81
2021/06/18 08:32:05;;;;;;;7.43;5.30;;;24.10;99.90;;;;;;4992569;28;20025;-79
2021/06/18 08:34:31;;;;;;;6.60;5.13;;;24.10;99.90;;;;;;4991032;28;20495;-79
2021/06/18 08:36:56;;;;;;;11.52;5.75;;;24.00;99.90;;;;;;4992010;28;20038;-76
2021/06/18 08:39:22;;;;;;;8.25;5.50;;;24.10;99.90;;;;;;4991867;28;20036;-78
2021/06/18 08:41:48;;;;;;;8.90;5.18;;;24.10;99.90;;;;;;4995602;28;20120;-81
2021/06/18 08:44:17;;;;;;;10.75;5.75;;;24.10;99.90;;;;;;4995519;28;20485;-77
2021/06/18 08:46:43;;;;;;;8.43;5.18;;;24.10;99.90;;;;;;4995521;28;20500;-77
2021/06/18 08:49:09;;;;;;;6.72;4.88;;;24.10;99.90;;;;;;5013611;28;20101;-80
2021/06/18 08:51:34;;;;;;;7.43;5.10;;;24.10;99.90;;;;;;4994839;28;20026;-81
2021/06/18 08:54:00;;;;;;;6.75;5.28;;;24.10;99.90;;;;;;4995400;28;20394;-75
2021/06/18 08:56:26;;;;;;;5.60;4.60;;;24.10;99.90;;;;;;4999370;28;20028;-74
2021/06/18 08:58:52;;;;;;;8.45;4.90;;;24.10;99.90;;;;;;4995592;28;20034;-76
2021/06/18 09:01:18;;;;;;;9.27;5.90;;;24.10;99.90;;;;;;4995333;28;20030;-75
2021/06/18 09:03:46;;;;;;;7.05;5.20;;;24.10;99.90;;;;;;4995716;28;20105;-75
2021/06/18 09:06:21;;;;;;;6.88;4.50;;;24.10;99.90;;;;;;5010086;28;20031;-79
2021/06/18 09:08:47;;;;;;;6.75;5.10;;;24.10;99.90;;;;;;4995465;28;20065;-79
2021/06/18 09:11:33;;;;;;;7.28;5.57;;;24.10;99.90;;;;;;4993329;28;20118;-76
2021/06/18 09:14:16;;;;;;;6.20;5.07;;;24.10;99.90;;;;;;4974148;28;20035;-75
2021/06/18 09:16:42;;;;;;;6.28;5.22;;;24.20;99.90;;;;;;4993826;28;20035;-74
2021/06/18 09:19:24;;;;;;;7.88;4.88;;;24.10;99.90;;;;;;4995023;28;20026;-77
2021/06/18 09:22:01;;;;;;;5.88;4.90;;;24.20;99.90;;;;;;4993815;28;20030;-79
2021/06/18 09:24:32;;;;;;;6.88;5.43;;;24.20;99.90;;;;;;4994974;28;20034;-78
2021/06/18 09:26:58;;;;;;;10.52;5.65;;;24.20;99.90;;;;;;4994870;28;20109;-79
2021/06/18 09:29:26;;;;;;;7.07;5.00;;;24.20;99.90;;;;;;4994420;28;20437;-76
2021/06/18 09:31:59;;;;;;;9.05;5.47;;;24.20;99.90;;;;;;4994607;28;20034;-74
2021/06/18 09:34:40;;;;;;;7.18;5.10;;;24.20;99.90;;;;;;4996751;28;20049;-75
2021/06/18 09:37:21;;;;;;;5.28;4.45;;;24.20;99.90;;;;;;4994213;28;20030;-76
2021/06/18 09:40:16;;;;;;;6.40;4.43;;;24.20;99.90;;;;;;5009836;28;20453;-79
2021/06/18 09:43:01;;;;;;;6.38;5.35;;;24.20;99.90;;;;;;4992792;28;20462;-79
2021/06/18 09:45:29;;;;;;;9.93;5.65;;;24.20;99.90;;;;;;4994296;28;20031;-78
2021/06/18 09:48:14;;;;;;;8.45;5.43;;;24.20;99.90;;;;;;4994099;28;20130;-78
2021/06/18 09:50:43;;;;;;;5.57;5.07;;;24.20;99.90;;;;;;4994163;28;20110;-79
2021/06/18 09:53:23;;;;;;;7.45;5.45;;;24.20;99.90;;;;;;4993446;28;20441;-78
2021/06/18 09:56:05;;;;;;;5.68;4.65;;;24.20;99.90;;;;;;4993405;28;20101;-76
2021/06/18 09:58:35;;;;;;;6.00;4.80;;;24.20;99.90;;;;;;4993398;28;20123;-80
2021/06/18 10:01:17;;;;;;;6.50;4.78;;;24.20;99.90;;;;;;4993870;28;20113;-76
2021/06/18 10:04:04;;;;;;;5.50;4.50;;;24.20;99.90;;;;;;4993846;28;20393;-78
2021/06/18 10:06:32;;;;;;;5.50;4.90;;;24.30;99.90;;;;;;4993420;28;20052;-79
2021/06/18 10:08:58;;;;;;;5.07;4.55;;;24.20;99.90;;;;;;4993518;28;20033;-78
2021/06/18 10:11:24;;;;;;;7.32;5.28;;;24.30;99.90;;;;;;4990691;28;20030;-78
2021/06/18 10:13:52;;;;;;;6.82;4.85;;;24.30;99.90;;;;;;4993510;28;20034;-77
2021/06/18 10:16:20;;;;;;;5.43;4.68;;;24.30;99.90;;;;;;4994105;28;20026;-79
2021/06/18 10:18:46;;;;;;;9.00;5.40;;;24.30;99.90;;;;;;4998558;28;20040;-78
2021/06/18 10:21:12;;;;;;;6.68;4.68;;;24.30;99.90;;;;;;5001567;28;20097;-79
2021/06/18 10:23:39;;;;;;;12.55;7.00;;;24.30;99.90;;;;;;4993438;28;20371;-77
2021/06/18 10:26:07;;;;;;;13.10;5.50;;;24.30;99.90;;;;;;4993656;28;20552;-74
2021/06/18 10:28:34;;;;;;;17.90;6.07;;;24.30;99.90;;;;;;4990689;28;20030;-77
2021/06/18 10:31:02;;;;;;;11.10;6.97;;;24.30;99.90;;;;;;4992759;28;20030;-76
2021/06/18 10:33:28;;;;;;;19.27;6.85;;;24.30;99.90;;;;;;5010551;28;20438;-76
2021/06/18 10:36:16;;;;;;;45.05;18.30;;;24.40;99.90;;;;;;4992418;28;20042;-76
2021/06/18 10:38:47;;;;;;;39.97;14.90;;;24.40;99.90;;;;;;4990253;28;20097;-76
2021/06/18 10:41:13;;;;;;;17.23;9.35;;;24.40;99.90;;;;;;4993734;28;20057;-75
2021/06/18 10:43:47;;;;;;;28.15;12.75;;;24.40;99.90;;;;;;4993219;28;20080;-78
2021/06/18 10:46:14;;;;;;;33.95;14.88;;;24.40;99.90;;;;;;4993876;28;20069;-75
2021/06/18 10:48:52;;;;;;;38.42;15.18;;;24.40;99.90;;;;;;4992795;28;20486;-75
2021/06/18 10:51:26;;;;;;;33.97;14.05;;;24.50;99.90;;;;;;4993342;28;20405;-75
2021/06/18 10:54:02;;;;;;;29.67;13.73;;;24.50;99.90;;;;;;4992648;28;20114;-77
2021/06/18 10:56:46;;;;;;;31.70;13.05;;;24.50;99.90;;;;;;4992274;28;20080;-75
2021/06/18 10:59:15;;;;;;;25.00;12.50;;;24.50;99.90;;;;;;4992577;28;20498;-75
2021/06/18 11:01:41;;;;;;;24.95;12.30;;;24.50;99.90;;;;;;4992703;28;20038;-74
2021/06/18 11:04:07;;;;;;;26.48;11.75;;;24.50;99.90;;;;;;4991787;28;20026;-77
2021/06/18 11:06:43;;;;;;;27.75;11.82;;;24.50;99.90;;;;;;4992009;28;20494;-74
2021/06/18 11:09:09;;;;;;;24.75;10.73;;;24.50;99.90;;;;;;4992946;28;20037;-75
2021/06/18 11:11:35;;;;;;;17.40;9.75;;;24.60;99.90;;;;;;4992005;28;20033;-75
2021/06/18 11:14:06;;;;;;;16.45;9.70;;;24.50;99.90;;;;;;4992741;28;20030;-77
2021/06/18 11:16:36;;;;;;;20.20;10.32;;;24.50;99.90;;;;;;4995082;28;20072;-76
2021/06/18 11:19:24;;;;;;;20.98;10.43;;;24.60;99.90;;;;;;4992792;28;20044;-76
2021/06/18 11:21:50;;;;;;;18.60;10.02;;;24.60;99.90;;;;;;4992612;28;20022;-75
2021/06/18 11:24:38;;;;;;;16.48;9.40;;;24.60;99.90;;;;;;4991303;28;20118;-79
2021/06/18 11:27:25;;;;;;;18.35;9.65;;;24.60;99.90;;;;;;4992808;28;20076;-77
2021/06/18 11:30:23;;;;;;;19.10;8.63;;;24.60;99.90;;;;;;4983795;28;20037;-79
2021/06/18 11:32:49;;;;;;;11.75;7.45;;;24.60;99.90;;;;;;4990899;28;20407;-74
2021/06/18 11:35:32;;;;;;;12.43;7.75;;;24.60;99.90;;;;;;4992681;28;20023;-73
2021/06/18 11:38:19;;;;;;;19.60;9.20;;;24.60;99.90;;;;;;4992146;28;20039;-73
2021/06/18 11:40:53;;;;;;;16.38;8.57;;;24.70;99.90;;;;;;4991973;28;20042;-77
2021/06/18 11:43:25;;;;;;;17.52;8.63;;;24.70;99.90;;;;;;4992242;28;20022;-73
2021/06/18 11:45:52;;;;;;;12.93;8.30;;;24.70;99.90;;;;;;4992146;28;20379;-73
2021/06/18 11:48:18;;;;;;;16.65;8.32;;;24.70;99.90;;;;;;5007406;28;20026;-73
2021/06/18 11:50:45;;;;;;;15.82;8.70;;;24.70;99.90;;;;;;4992047;28;20030;-73
2021/06/18 11:53:12;;;;;;;15.68;7.68;;;24.70;99.90;;;;;;4992241;28;20027;-74
2021/06/18 11:55:38;;;;;;;12.70;6.82;;;24.70;99.90;;;;;;4991093;28;20100;-73
2021/06/18 11:58:04;;;;;;;14.82;7.45;;;24.70;99.90;;;;;;4991259;28;20030;-75
2021/06/18 12:00:35;;;;;;;16.52;6.95;;;24.70;99.90;;;;;;5006619;28;20041;-74
2021/06/18 12:03:03;;;;;;;11.65;7.50;;;24.70;99.90;;;;;;4991627;28;20026;-75
2021/06/18 12:05:34;;;;;;;11.75;6.72;;;24.70;99.90;;;;;;5006603;28;20108;-74
2021/06/18 12:08:09;;;;;;;11.90;6.70;;;24.70;99.90;;;;;;4991059;28;20026;-73
2021/06/18 12:10:35;;;;;;;;;;;24.70;99.90;;;;;;4990297;28;20026;-76
2021/06/18 12:13:01;;;;;;;;;;;24.70;99.90;;;;;;4991473;28;19910;-76
2021/06/18 12:15:36;;;;;;;10.40;6.50;;;24.70;99.90;;;;;;4990630;28;19964;-78
2021/06/18 12:18:05;;;;;;;10.20;6.47;;;24.70;99.90;;;;;;4991028;28;20506;-74
2021/06/18 12:20:35;;;;;;;11.32;6.93;;;24.80;99.90;;;;;;4971921;28;20019;-75
2021/06/18 12:23:02;;;;;;;11.30;6.00;;;24.70;99.90;;;;;;4984647;28;20030;-73
2021/06/18 12:25:28;;;;;;;11.13;6.90;;;24.80;99.90;;;;;;4990735;28;20026;-76
2021/06/18 12:27:59;;;;;;;10.32;5.97;;;24.70;99.90;;;;;;4991079;28;20070;-77
2021/06/18 12:30:30;;;;;;;8.35;6.30;;;24.80;99.90;;;;;;4990687;28;20533;-74
2021/06/18 12:32:56;;;;;;;11.00;7.05;;;24.80;99.90;;;;;;4990179;28;20117;-76
2021/06/18 12:35:32;;;;;;;8.35;5.85;;;24.80;99.90;;;;;;4991469;28;20102;-76
2021/06/18 12:38:00;;;;;;;12.32;5.85;;;24.70;99.90;;;;;;4990890;28;20490;-74
2021/06/18 12:40:28;;;;;;;12.65;6.22;;;24.70;99.90;;;;;;4991022;28;20025;-76
2021/06/18 12:42:56;;;;;;;9.82;5.75;;;24.70;99.90;;;;;;4991239;28;20037;-75
2021/06/18 12:45:31;;;;;;;9.65;6.30;;;24.70;99.90;;;;;;4990286;28;20029;-73
2021/06/18 12:48:13;;;;;;;;;;;24.70;99.90;;;;;;4991969;28;20184;-76